Time;durP1;ratioP1;P1;durP2;ratioP2;P2;SDS_P1;SDS_P2;PMS_P1;PMS_P2;Temp;Humidity;BMP_temperature;BMP_pressure;BME280_temperature;BME280_humidity;BME280_pressure;Samples;Min_cycle;Max_cycle;Signal;HPM_P1;HPM_P2
2022/06/05 00:01:36;;;;;;;5.72;5.35;;;;;;;17.55;77.75;101247.56;6022822;23;20342;-66
2022/06/05 00:04:20;;;;;;;7.03;6.63;;;;;;;17.45;79.67;101239.41;6013339;23;20029;-65
2022/06/05 00:07:24;;;;;;;6.05;5.75;;;;;;;17.39;79.46;101244.34;6040763;23;20419;-65
2022/06/05 00:10:07;;;;;;;6.72;6.28;;;;;;;17.19;80.40;101229.84;6056797;23;20089;-65
2022/06/05 00:12:40;;;;;;;5.50;5.20;;;;;;;17.25;80.61;101245.31;6024054;23;20069;-66
2022/06/05 00:15:07;;;;;;;6.57;6.28;;;;;;;16.93;80.73;101200.72;6060232;23;20049;-66
2022/06/05 00:17:33;;;;;;;5.80;5.30;;;;;;;17.14;80.45;101238.16;6020318;23;20029;-66
2022/06/05 00:19:59;;;;;;;8.27;7.70;;;;;;;16.33;80.49;101106.84;6041669;23;20072;-66
2022/06/05 00:22:26;;;;;;;6.03;5.63;;;;;;;17.16;81.14;101252.16;6026827;23;20022;-65
2022/06/05 00:24:53;;;;;;;7.05;6.72;;;;;;;17.13;81.97;101250.53;6053643;23;20030;-66
2022/06/05 00:27:29;;;;;;;5.80;5.50;;;;;;;17.07;82.66;101250.97;6031525;23;20089;-65
2022/06/05 00:30:08;;;;;;;7.15;6.82;;;;;;;17.04;82.96;101239.72;6050125;23;20051;-65
2022/06/05 00:33:09;;;;;;;5.38;5.07;;;;;;;16.99;83.01;101239.22;6025374;23;20093;-65
2022/06/05 00:35:52;;;;;;;5.88;5.47;;;;;;;16.82;83.51;101209.44;6050920;23;20464;-65
2022/06/05 00:38:39;;;;;;;5.28;5.07;;;;;;;16.69;83.61;101182.91;6027838;23;20026;-66
2022/06/05 00:41:28;;;;;;;6.03;5.72;;;;;;;16.90;83.37;101223.00;6021607;23;20435;-65
2022/06/05 00:43:59;;;;;;;7.13;6.78;;;;;;;16.86;83.75;101221.53;6047156;23;20462;-65
2022/06/05 00:46:27;;;;;;;5.47;5.20;;;;;;;16.83;84.57;101221.72;6029855;23;20052;-64
2022/06/05 00:48:53;;;;;;;7.53;7.13;;;;;;;16.81;84.34;101218.34;6040088;23;20026;-65
2022/06/05 00:51:19;;;;;;;5.30;5.10;;;;;;;16.78;84.88;101213.25;6054538;23;20068;-65
2022/06/05 00:53:47;;;;;;;5.40;5.10;;;;;;;16.54;85.26;101174.25;6028916;23;20101;-64
2022/06/05 00:56:13;;;;;;;5.90;5.60;;;;;;;16.43;85.96;101160.88;6050227;23;20026;-67
2022/06/05 00:58:41;;;;;;;5.82;5.50;;;;;;;16.69;86.52;101198.81;6053114;23;20010;-66
2022/06/05 01:01:08;;;;;;;6.05;5.75;;;;;;;16.68;86.51;101193.63;6019896;23;20139;-66
2022/06/05 01:03:35;;;;;;;6.15;5.75;;;;;;;16.66;86.68;101187.59;6053555;23;20097;-66
2022/06/05 01:06:03;;;;;;;6.85;6.55;;;;;;;16.59;87.22;101184.50;6025685;23;20060;-66
2022/06/05 01:08:29;;;;;;;5.47;5.28;;;;;;;16.57;86.03;101194.38;6063654;23;20042;-65
2022/06/05 01:11:16;;;;;;;6.68;6.38;;;;;;;16.54;86.35;101200.75;6023246;23;20054;-66
2022/06/05 01:14:08;;;;;;;5.90;5.60;;;;;;;16.51;87.20;101206.22;6056399;23;20507;-66
2022/06/05 01:17:34;;;;;;;5.68;5.38;;;;;;;16.63;87.77;101193.94;6033026;23;20646;-66
2022/06/05 01:20:13;;;;;;;7.53;7.15;;;;;;;14.66;86.18;100844.88;5964829;24;20024;-66
2022/06/05 01:22:45;;;;;;;5.90;5.60;;;;;;;16.78;85.36;101177.91;5963121;24;20059;-66
2022/06/05 01:25:17;;;;;;;5.47;5.18;;;;;;;16.52;85.51;101117.03;5991574;23;21294;-66
2022/06/05 01:27:51;;;;;;;5.30;5.10;;;;;;;16.90;85.05;101179.75;6033055;23;20515;-66
2022/06/05 01:30:21;;;;;;;5.90;5.55;;;;;;;16.58;85.65;101124.53;6019803;23;20463;-66
2022/06/05 01:33:07;;;;;;;5.45;5.22;;;;;;;16.56;84.90;101105.25;6023554;23;20037;-65
2022/06/05 01:35:43;;;;;;;5.35;5.13;;;;;;;16.97;84.77;101153.63;6021049;23;20018;-66
2022/06/05 01:38:18;;;;;;;5.38;5.07;;;;;;;16.95;85.31;101143.13;6055229;23;20026;-66
2022/06/05 01:40:52;;;;;;;5.28;5.07;;;;;;;16.86;84.77;101122.59;6050835;23;20147;-66
2022/06/05 01:43:23;;;;;;;5.50;5.20;;;;;;;17.01;84.55;101141.84;6054101;23;20021;-66
2022/06/05 01:45:57;;;;;;;6.43;6.13;;;;;;;16.93;85.02;101121.19;6021539;23;20034;-66
2022/06/05 01:48:33;;;;;;;5.68;5.38;;;;;;;17.01;84.56;101124.13;6036450;23;20040;-66
2022/06/05 01:51:06;;;;;;;6.75;6.45;;;;;;;17.07;84.29;101123.69;6024124;23;20078;-66
2022/06/05 01:53:40;;;;;;;5.70;5.40;;;;;;;17.03;83.91;101119.56;6043586;23;20033;-66
2022/06/05 01:56:30;;;;;;;6.05;5.70;;;;;;;17.01;83.95;101118.81;6020676;23;20061;-65
2022/06/05 01:59:08;;;;;;;7.18;6.78;;;;;;;17.06;84.25;101102.56;6048081;23;20045;-65
2022/06/05 02:01:38;;;;;;;6.13;5.82;;;;;;;17.07;83.73;101112.22;6016376;23;20034;-65
2022/06/05 02:04:14;;;;;;;6.90;6.50;;;;;;;16.67;83.28;101022.31;6052180;23;20114;-66
2022/06/05 02:06:56;;;;;;;5.55;5.25;;;;;;;17.11;82.36;101095.97;6018141;23;20247;-65
2022/06/05 02:09:30;;;;;;;5.70;5.30;;;;;;;17.22;82.49;101092.56;6052219;23;20022;-65
2022/06/05 02:11:57;;;;;;;6.95;6.55;;;;;;;17.23;82.18;101085.44;6055743;23;20279;-68
2022/06/05 02:14:25;;;;;;;5.40;5.15;;;;;;;17.23;82.21;101080.13;6054653;23;20053;-65
2022/06/05 02:16:52;;;;;;;6.78;6.47;;;;;;;16.98;82.20;101047.47;6024326;23;20443;-64
2022/06/05 02:19:21;;;;;;;5.53;5.22;;;;;;;17.19;82.35;101070.72;6050679;23;20089;-67
2022/06/05 02:21:50;;;;;;;5.82;5.53;;;;;;;16.14;81.92;100898.97;6026964;23;20026;-65
2022/06/05 02:24:17;;;;;;;5.57;5.28;;;;;;;16.98;81.86;101020.09;6047167;23;20269;-65
2022/06/05 02:26:44;;;;;;;5.57;5.28;;;;;;;16.87;83.10;101010.28;6027635;23;20338;-65
2022/06/05 02:29:18;;;;;;;5.80;5.40;;;;;;;17.02;83.42;101001.22;6052770;23;20025;-65
2022/06/05 02:32:07;;;;;;;5.47;5.18;;;;;;;17.33;81.88;101030.72;6018451;23;20025;-65
2022/06/05 02:35:10;;;;;;;5.78;5.47;;;;;;;17.50;81.41;101018.81;6050344;23;20020;-66
2022/06/05 02:38:01;;;;;;;5.25;5.00;;;;;;;17.69;79.40;101005.84;6028566;23;20034;-65
2022/06/05 02:40:40;;;;;;;5.82;5.53;;;;;;;17.84;77.67;101002.97;6055737;23;20097;-65
2022/06/05 02:43:12;;;;;;;6.53;6.22;;;;;;;18.01;76.57;101002.53;6022602;23;20089;-65
2022/06/05 02:45:44;;;;;;;5.50;5.20;;;;;;;18.08;76.32;100992.25;6026721;23;20038;-65
2022/06/05 02:48:29;;;;;;;5.40;5.10;;;;;;;18.08;76.06;100987.81;6020080;23;20023;-65
2022/06/05 02:51:22;;;;;;;7.05;6.65;;;;;;;17.94;76.64;100974.75;6047245;23;20511;-66
2022/06/05 02:53:57;;;;;;;5.75;5.50;;;;;;;17.83;77.59;100977.38;6052739;23;20103;-65
2022/06/05 02:56:27;;;;;;;5.93;5.63;;;;;;;17.59;80.38;100975.66;6048639;23;20322;-66
2022/06/05 02:58:55;;;;;;;7.03;6.72;;;;;;;17.43;81.83;100967.22;6018974;23;20066;-65
2022/06/05 03:04:07;;;;;;;5.60;5.30;;;;;;;17.13;84.53;100953.50;6020364;23;20034;-65
2022/06/05 03:06:37;;;;;;;5.55;5.25;;;;;;;17.08;85.22;100950.38;6049285;23;20015;-65
2022/06/05 03:09:04;;;;;;;7.03;6.63;;;;;;;17.07;83.94;100943.34;6025594;23;20078;-65
2022/06/05 03:11:38;;;;;;;5.40;5.15;;;;;;;17.17;82.99;100947.97;6023101;23;20266;-65
2022/06/05 03:14:05;;;;;;;6.93;6.63;;;;;;;17.26;81.77;100952.56;6049199;23;20956;-67
2022/06/05 03:16:34;;;;;;;5.50;5.20;;;;;;;17.14;80.91;100926.03;6028336;23;20401;-65
2022/06/05 03:19:01;;;;;;;6.70;6.40;;;;;;;17.26;81.29;100949.91;6021333;23;20090;-66
2022/06/05 03:21:31;;;;;;;5.93;5.63;;;;;;;16.88;80.68;100874.16;6051118;23;20032;-65
2022/06/05 03:23:57;;;;;;;7.13;6.82;;;;;;;17.30;79.97;100931.00;6040879;23;20089;-65
2022/06/05 03:26:24;;;;;;;5.60;5.35;;;;;;;17.57;78.90;100958.19;6055228;23;20651;-66
2022/06/05 03:28:50;;;;;;;6.60;6.30;;;;;;;17.67;78.52;100961.81;6024029;23;20010;-65
2022/06/05 03:31:17;;;;;;;5.40;5.10;;;;;;;17.69;77.64;100946.59;6052806;23;20042;-66
2022/06/05 03:33:43;;;;;;;5.50;5.10;;;;;;;17.80;77.40;100959.91;6028806;23;20029;-70
2022/06/05 03:36:13;;;;;;;5.35;5.07;;;;;;;17.33;77.15;100864.44;6047015;23;20495;-68
2022/06/05 03:38:40;;;;;;;5.53;5.22;;;;;;;17.92;76.99;100951.00;6020743;23;20022;-69
2022/06/05 03:41:08;;;;;;;5.97;5.57;;;;;;;17.78;76.85;100916.69;6045830;23;20054;-65
2022/06/05 03:43:36;;;;;;;5.78;5.47;;;;;;;18.03;76.58;100936.00;6018209;23;20179;-66
2022/06/05 03:46:08;;;;;;;7.25;6.90;;;;;;;18.11;75.95;100939.72;6046896;23;20037;-64
2022/06/05 03:48:35;;;;;;;5.20;4.90;;;;;;;18.10;75.74;100942.50;6026344;23;20236;-65
2022/06/05 03:51:11;;;;;;;6.90;6.53;;;;;;;18.18;75.26;100936.59;6043599;23;20248;-64
2022/06/05 03:53:38;;;;;;;5.70;5.35;;;;;;;18.23;75.50;100934.41;6023622;23;20023;-64
2022/06/05 03:56:17;;;;;;;6.55;6.13;;;;;;;17.67;74.56;100842.38;6047557;23;20057;-64
2022/06/05 03:58:44;;;;;;;5.72;5.43;;;;;;;18.28;74.37;100942.84;6025478;23;20015;-65
2022/06/05 04:01:12;;;;;;;5.60;5.30;;;;;;;18.20;74.54;100926.69;6024264;23;20102;-64
2022/06/05 04:03:39;;;;;;;5.43;5.22;;;;;;;18.32;74.12;100949.59;6055371;23;20059;-64
2022/06/05 04:06:20;;;;;;;5.65;5.35;;;;;;;18.28;74.83;100951.69;6024632;23;20240;-65
2022/06/05 04:08:47;;;;;;;;;;;;;;;17.31;74.04;100788.59;6061619;23;20103;-63
2022/06/05 04:11:18;;;;;;;5.43;5.13;;;;;;;18.13;74.46;100907.75;6026581;23;19914;-64
2022/06/05 04:13:46;;;;;;;5.38;5.10;;;;;;;18.28;74.60;100929.56;6059985;23;20096;-64
2022/06/05 04:16:17;;;;;;;5.30;5.10;;;;;;;18.29;74.54;100931.25;6024700;23;20019;-64
2022/06/05 04:18:45;;;;;;;5.35;5.13;;;;;;;18.29;74.66;100937.41;6052935;23;20022;-65
2022/06/05 04:21:16;;;;;;;5.60;5.30;;;;;;;18.24;74.11;100920.16;6047437;23;20094;-66
2022/06/05 04:23:43;;;;;;;5.20;5.00;;;;;;;18.34;74.51;100940.56;6021817;23;20456;-64
2022/06/05 04:26:13;;;;;;;5.50;5.20;;;;;;;18.37;74.77;100949.25;6053846;23;20010;-67
2022/06/05 04:28:40;;;;;;;5.47;5.20;;;;;;;18.42;73.98;100955.00;6028541;23;20663;-66
2022/06/05 04:31:17;;;;;;;5.40;5.10;;;;;;;18.45;74.17;100965.41;6056381;23;20077;-66
2022/06/05 04:33:44;;;;;;;7.13;5.38;;;;;;;18.47;74.18;100968.78;6025673;23;20038;-64
2022/06/05 04:36:11;;;;;;;5.70;5.40;;;;;;;18.38;74.03;100956.22;6024121;23;20259;-64
2022/06/05 04:38:37;;;;;;;5.60;5.30;;;;;;;18.51;74.42;100980.84;6000038;23;20019;-64
2022/06/05 04:41:04;;;;;;;7.00;6.60;;;;;;;18.52;74.80;100995.81;6023542;23;20071;-65
2022/06/05 04:43:30;;;;;;;5.50;5.20;;;;;;;18.54;75.00;101001.84;5998908;23;20289;-65
2022/06/05 04:45:57;;;;;;;6.63;6.32;;;;;;;18.19;75.78;100940.94;6028043;23;20031;-64
2022/06/05 04:48:23;;;;;;;5.43;5.22;;;;;;;18.58;74.69;101002.44;5995046;23;20452;-67
2022/06/05 04:50:50;;;;;;;6.40;6.00;;;;;;;18.62;74.08;101011.88;6028562;23;20106;-67
2022/06/05 04:53:16;;;;;;;5.60;5.30;;;;;;;18.67;73.84;101012.34;5997199;23;20027;-67
2022/06/05 04:55:43;;;;;;;5.60;5.30;;;;;;;18.67;73.62;101009.69;6025629;23;20023;-67
2022/06/05 04:58:09;;;;;;;7.28;6.97;;;;;;;18.72;74.22;101012.78;5985985;23;20032;-64
2022/06/05 05:00:36;;;;;;;5.45;5.20;;;;;;;18.76;74.11;101016.06;6020743;23;20098;-67
2022/06/05 05:03:02;;;;;;;7.25;6.85;;;;;;;18.76;74.01;101026.69;5994287;23;20047;-64
2022/06/05 05:05:29;;;;;;;5.88;5.57;;;;;;;18.72;74.12;101029.63;6031832;23;20030;-64
2022/06/05 05:07:55;;;;;;;7.13;6.63;;;;;;;18.45;74.44;100982.19;5996521;23;20043;-66
2022/06/05 05:10:22;;;;;;;5.80;5.50;;;;;;;18.81;74.45;101032.53;6032445;23;20090;-64
2022/06/05 05:12:49;;;;;;;5.97;5.68;;;;;;;18.79;74.21;101031.78;5995889;23;20017;-66
2022/06/05 05:15:15;;;;;;;5.68;5.38;;;;;;;18.78;74.38;101035.38;6031079;23;20015;-66
2022/06/05 05:17:41;;;;;;;5.25;5.05;;;;;;;18.78;74.59;101040.72;6003238;23;20539;-67
2022/06/05 05:20:09;;;;;;;5.65;5.35;;;;;;;18.54;74.45;100996.53;6021605;23;20082;-67
2022/06/05 05:22:37;;;;;;;5.70;5.40;;;;;;;18.80;73.71;101026.34;5999042;23;20050;-64
2022/06/05 05:25:07;;;;;;;6.72;6.43;;;;;;;18.82;73.39;101023.56;6028732;23;20252;-65
2022/06/05 05:27:35;;;;;;;5.85;5.55;;;;;;;18.89;73.25;101019.44;5997593;23;20019;-64
2022/06/05 05:30:05;;;;;;;6.47;6.18;;;;;;;18.86;73.13;101014.38;6025500;23;20027;-66
2022/06/05 05:32:32;;;;;;;5.93;5.55;;;;;;;18.96;72.60;101019.78;5994697;23;20055;-68
2022/06/05 05:34:58;;;;;;;7.32;6.65;;;;;;;18.97;72.31;101010.84;6004012;23;20025;-67
2022/06/05 05:37:24;;;;;;;5.70;5.40;;;;;;;18.97;72.03;101011.66;6007986;23;20014;-68
2022/06/05 05:42:36;;;;;;;5.57;5.28;;;;;;;19.01;71.32;100991.00;6002359;23;20164;-64
2022/06/05 05:45:06;;;;;;;6.93;6.63;;;;;;;18.97;70.57;100974.44;6025816;23;20027;-66
2022/06/05 05:47:33;;;;;;;6.00;5.70;;;;;;;19.17;71.10;100994.06;6012320;23;20075;-68
2022/06/05 05:50:03;;;;;;;6.75;6.45;;;;;;;19.17;71.06;100990.56;6023212;23;20023;-65
2022/06/05 05:52:30;;;;;;;5.75;5.47;;;;;;;19.11;70.49;100965.31;6019892;23;20015;-65
2022/06/05 05:54:57;;;;;;;7.13;6.72;;;;;;;19.29;70.73;100982.38;6034228;23;20029;-68
2022/06/05 05:57:24;;;;;;;6.03;5.72;;;;;;;19.35;70.77;100983.69;5995327;23;20019;-65
2022/06/05 05:59:50;;;;;;;6.38;6.05;;;;;;;19.15;69.63;100926.00;6024037;23;20027;-64
2022/06/05 06:02:23;;;;;;;5.63;5.32;;;;;;;19.42;70.70;100970.69;5993151;23;20116;-65
2022/06/05 06:04:51;;;;;;;6.25;5.90;;;;;;;19.29;70.67;100933.63;6023697;23;20025;-65
2022/06/05 06:07:18;;;;;;;6.50;6.05;;;;;;;19.55;70.91;100967.84;5998532;23;20033;-64
2022/06/05 06:09:45;;;;;;;5.82;5.53;;;;;;;19.32;71.26;100931.56;6029230;23;20026;-64
2022/06/05 06:12:20;;;;;;;5.85;5.55;;;;;;;19.44;70.76;100918.16;6001691;23;20007;-64
2022/06/05 06:14:46;;;;;;;5.75;5.45;;;;;;;19.65;70.81;100940.28;6032386;23;20097;-63
2022/06/05 06:17:13;;;;;;;5.63;5.32;;;;;;;19.66;70.26;100933.13;5993462;23;20646;-64
2022/06/05 06:19:39;;;;;;;6.00;5.70;;;;;;;19.85;70.62;100943.06;6027652;23;20420;-65
2022/06/05 06:22:06;;;;;;;6.78;6.38;;;;;;;19.84;70.59;100950.19;6000496;23;20274;-65
2022/06/05 06:24:33;;;;;;;6.13;5.82;;;;;;;19.91;70.25;100943.34;6014919;23;20107;-65
2022/06/05 06:26:59;;;;;;;7.22;6.82;;;;;;;19.89;70.33;100939.97;5992666;23;20023;-64
2022/06/05 06:29:26;;;;;;;6.47;5.97;;;;;;;19.98;70.07;100921.50;6028150;23;20459;-65
2022/06/05 06:31:52;;;;;;;7.72;7.32;;;;;;;19.71;70.27;100873.19;6019303;23;20168;-65
2022/06/05 06:34:19;;;;;;;5.63;5.32;;;;;;;20.08;70.36;100923.19;6009629;23;20030;-65
2022/06/05 06:36:45;;;;;;;6.10;5.70;;;;;;;20.14;69.92;100905.81;6046028;23;20486;-64
2022/06/05 06:39:16;;;;;;;6.00;5.70;;;;;;;20.13;70.00;100906.81;6006663;23;20023;-65
2022/06/05 06:41:43;;;;;;;6.20;5.70;;;;;;;20.19;69.89;100903.59;6047156;23;20526;-65
2022/06/05 06:44:10;;;;;;;5.95;5.65;;;;;;;20.12;69.88;100892.63;6018661;23;20469;-65
2022/06/05 06:46:36;;;;;;;5.93;5.63;;;;;;;19.84;69.77;100846.31;6051764;23;20085;-65
2022/06/05 06:49:03;;;;;;;7.43;7.05;;;;;;;19.82;70.06;100832.28;6008118;23;20027;-65
2022/06/05 06:51:30;;;;;;;5.95;5.63;;;;;;;19.91;69.94;100843.97;6020041;23;20045;-65
2022/06/05 06:53:57;;;;;;;7.10;6.70;;;;;;;20.30;69.90;100900.81;6057287;23;20025;-65
2022/06/05 06:56:26;;;;;;;5.70;5.40;;;;;;;20.16;69.95;100871.88;6017686;23;20093;-64
2022/06/05 06:58:54;;;;;;;7.53;7.03;;;;;;;20.30;69.51;100874.16;6038287;23;20026;-65
2022/06/05 07:01:22;;;;;;;6.30;5.90;;;;;;;20.33;69.69;100873.88;6014004;23;20023;-65
2022/06/05 07:03:49;;;;;;;6.75;6.40;;;;;;;20.27;69.46;100871.78;6045945;23;20038;-65
2022/06/05 07:06:16;;;;;;;6.18;5.88;;;;;;;20.07;69.38;100830.94;6021100;23;20476;-65
2022/06/05 07:08:44;;;;;;;6.30;5.95;;;;;;;20.18;70.68;100845.94;6052036;23;20019;-65
2022/06/05 07:11:12;;;;;;;6.20;5.80;;;;;;;20.46;69.76;100856.75;6020730;23;20488;-65
2022/06/05 07:13:46;;;;;;;5.90;5.60;;;;;;;20.55;68.84;100857.75;6047126;23;20093;-65
2022/06/05 07:16:13;;;;;;;5.97;5.68;;;;;;;20.63;68.77;100847.28;6016570;23;20126;-65
2022/06/05 07:18:40;;;;;;;6.30;6.00;;;;;;;20.65;68.18;100839.97;6044397;23;20023;-65
2022/06/05 07:21:09;;;;;;;6.22;5.93;;;;;;;20.90;67.82;100849.19;6009274;23;20094;-65
2022/06/05 07:23:36;;;;;;;6.10;5.80;;;;;;;20.93;67.12;100832.91;6053218;23;20494;-64
2022/06/05 07:26:03;;;;;;;7.47;7.07;;;;;;;21.31;66.16;100849.78;6020018;23;20258;-64
2022/06/05 07:28:29;;;;;;;6.53;6.10;;;;;;;21.37;65.78;100837.66;6044138;23;20054;-65
2022/06/05 07:30:56;;;;;;;7.05;6.65;;;;;;;21.43;64.84;100824.59;6025939;23;20047;-64
2022/06/05 07:33:23;;;;;;;6.32;5.93;;;;;;;21.16;65.10;100771.16;6040102;23;20182;-64
2022/06/05 07:36:02;;;;;;;6.75;6.40;;;;;;;21.26;64.32;100779.97;6006861;23;20319;-64
2022/06/05 07:38:29;;;;;;;6.47;6.07;;;;;;;21.67;64.61;100842.75;5994141;23;20027;-65
2022/06/05 07:40:56;;;;;;;6.07;5.78;;;;;;;21.63;64.90;100809.31;6022205;23;20046;-65
2022/06/05 07:43:22;;;;;;;6.93;6.53;;;;;;;21.64;64.30;100810.97;5971823;23;20631;-65
2022/06/05 07:45:49;;;;;;;6.85;6.45;;;;;;;22.02;63.78;100848.31;6016563;23;20293;-65
2022/06/05 07:48:19;;;;;;;6.55;6.18;;;;;;;21.98;64.57;100852.28;6024800;23;20037;-64
2022/06/05 07:56:18;;;;;;;6.80;6.43;;;;;;;22.01;63.04;100859.97;6018450;23;20261;-64
2022/06/05 07:58:44;;;;;;;6.28;5.88;;;;;;;21.31;63.62;100765.19;5996582;23;20247;-64
2022/06/05 08:01:11;;;;;;;8.32;7.78;;;;;;;21.99;62.23;100857.47;5997922;23;20239;-64
2022/06/05 08:03:37;;;;;;;5.93;5.63;;;;;;;21.86;62.80;100855.16;6023890;23;20022;-64
2022/06/05 08:06:04;;;;;;;7.40;7.00;;;;;;;21.58;62.30;100789.38;6002149;23;20157;-67
2022/06/05 08:08:31;;;;;;;6.32;5.93;;;;;;;22.19;60.97;100865.34;6032235;23;20492;-65
2022/06/05 08:11:03;;;;;;;6.30;5.90;;;;;;;22.09;62.05;100862.72;5990460;23;20043;-65
2022/06/05 08:13:36;;;;;;;6.20;5.90;;;;;;;21.90;63.09;100864.53;6027791;23;20098;-65
2022/06/05 08:16:03;;;;;;;6.20;5.90;;;;;;;21.76;64.55;100830.31;6022723;23;20022;-64
2022/06/05 08:18:30;;;;;;;6.65;6.25;;;;;;;21.88;64.08;100852.34;6022836;23;20429;-64
2022/06/05 08:20:57;;;;;;;6.00;5.70;;;;;;;21.82;64.31;100876.97;6020139;23;20363;-67
2022/06/05 08:23:23;;;;;;;6.05;5.75;;;;;;;21.79;65.98;100874.59;6023410;23;20086;-65
2022/06/05 08:25:50;;;;;;;6.30;6.00;;;;;;;21.39;65.87;100788.47;6020406;23;20027;-65
2022/06/05 08:28:17;;;;;;;6.25;5.93;;;;;;;21.70;67.90;100837.09;6027683;23;20026;-65
2022/06/05 08:30:46;;;;;;;6.28;5.80;;;;;;;21.64;66.48;100844.88;5978416;23;20043;-63
2022/06/05 08:33:13;;;;;;;6.15;5.85;;;;;;;21.75;66.27;100866.06;6020807;23;20018;-65
2022/06/05 08:35:39;;;;;;;6.82;6.40;;;;;;;21.60;67.00;100838.97;6034778;23;20022;-65
2022/06/05 08:41:27;;;;;;;7.15;6.75;;;;;;;21.46;67.79;100858.16;6023293;23;20199;-64
2022/06/05 08:44:24;;;;;;;8.23;7.75;;;;;;;21.54;68.13;100865.44;6018796;23;20338;-65
2022/06/05 08:47:03;;;;;;;6.85;6.45;;;;;;;21.34;68.10;100841.47;5994900;23;20139;-65
2022/06/05 08:49:43;;;;;;;6.28;5.97;;;;;;;21.34;69.98;100868.16;6006846;23;20477;-65
2022/06/05 08:52:27;;;;;;;6.88;6.47;;;;;;;20.07;70.40;100670.25;5993615;23;20023;-65
2022/06/05 08:55:22;;;;;;;7.70;7.30;;;;;;;21.16;70.27;100848.56;6004195;23;20779;-64
2022/06/05 08:58:03;;;;;;;6.90;6.40;;;;;;;21.21;71.10;100864.94;5999993;23;20051;-63
2022/06/05 09:00:41;;;;;;;6.10;5.80;;;;;;;20.91;74.04;100856.22;6017909;23;20006;-65
2022/06/05 09:03:21;;;;;;;6.07;5.78;;;;;;;20.67;77.42;100865.50;6002417;23;20452;-65
2022/06/05 09:05:56;;;;;;;6.55;6.18;;;;;;;20.43;80.16;100867.72;5991697;23;20031;-64
2022/06/05 09:08:36;;;;;;;6.15;5.80;;;;;;;20.14;82.47;100871.19;6019031;23;20093;-64
2022/06/05 09:11:07;;;;;;;;;;;;;;;20.05;84.56;100869.38;5988723;23;20342;-65
2022/06/05 09:13:59;;;;;;;7.70;7.05;;;;;;;19.80;89.03;100870.69;5996187;23;20250;-65
2022/06/05 09:16:29;;;;;;;6.45;6.05;;;;;;;19.60;90.39;100864.44;6006662;23;20239;-65
2022/06/05 09:18:58;;;;;;;8.32;7.82;;;;;;;19.35;95.22;100863.91;5990735;23;20024;-64
2022/06/05 09:21:24;;;;;;;6.78;6.38;;;;;;;19.30;95.92;100863.47;6031716;23;20046;-65
2022/06/05 09:24:13;;;;;;;7.20;6.82;;;;;;;19.24;100.00;100871.97;5982156;23;20103;-65
2022/06/05 09:26:59;;;;;;;6.03;5.72;;;;;;;19.29;100.00;100872.44;6019884;23;20427;-65
2022/06/05 09:29:43;;;;;;;6.55;6.15;;;;;;;19.27;100.00;100871.72;6002231;23;20282;-64
2022/06/05 09:32:39;;;;;;;6.88;6.30;;;;;;;19.25;100.00;100874.50;5987557;23;20024;-65
2022/06/05 09:35:11;;;;;;;7.43;6.82;;;;;;;19.22;100.00;100879.25;5997506;23;20470;-64
2022/06/05 09:37:51;;;;;;;6.80;6.40;;;;;;;18.94;100.00;100855.00;6017461;23;20411;-64
2022/06/05 09:40:21;;;;;;;6.25;5.95;;;;;;;19.09;100.00;100877.63;5993562;23;20022;-65
2022/06/05 09:43:01;;;;;;;6.18;5.88;;;;;;;18.91;100.00;100888.03;6018720;23;20027;-69
2022/06/05 09:45:43;;;;;;;6.40;6.00;;;;;;;18.86;100.00;100870.75;5995659;23;20011;-68
2022/06/05 09:48:27;;;;;;;6.25;5.95;;;;;;;18.74;100.00;100878.78;6019446;23;20105;-69
2022/06/05 09:51:01;;;;;;;7.30;6.47;;;;;;;18.46;100.00;100810.28;6002132;23;20054;-69
2022/06/05 09:53:35;;;;;;;6.80;6.45;;;;;;;18.70;100.00;100860.53;5989697;23;20035;-69
2022/06/05 09:56:30;;;;;;;7.80;7.32;;;;;;;18.91;100.00;100877.38;6021204;23;20383;-68
2022/06/05 09:59:18;;;;;;;8.10;7.30;;;;;;;19.00;100.00;100883.72;5988239;23;20415;-69
2022/06/05 10:01:51;;;;;;;6.18;5.88;;;;;;;19.08;100.00;100873.31;6012736;23;20515;-68
2022/06/05 10:04:20;;;;;;;6.38;6.00;;;;;;;17.85;100.00;100676.31;6010502;23;20656;-69
2022/06/05 10:06:55;;;;;;;6.10;5.78;;;;;;;19.16;100.00;100871.78;5992180;23;20011;-69
2022/06/05 10:09:26;;;;;;;7.05;6.55;;;;;;;18.73;100.00;100789.34;6018694;23;20100;-69
2022/06/05 10:11:59;;;;;;;6.38;6.07;;;;;;;19.11;100.00;100830.47;6014458;23;20017;-68
2022/06/05 10:14:37;;;;;;;7.05;6.63;;;;;;;19.37;100.00;100846.00;5993875;23;20026;-69
2022/06/05 10:17:16;;;;;;;7.95;7.55;;;;;;;19.28;100.00;100850.31;6018609;23;20265;-65
2022/06/05 10:20:13;;;;;;;6.40;6.07;;;;;;;19.56;100.00;100849.72;5994302;23;20054;-68
2022/06/05 10:22:40;;;;;;;6.20;5.80;;;;;;;19.87;100.00;100853.22;5992819;23;20511;-68
2022/06/05 10:25:35;;;;;;;6.45;6.05;;;;;;;19.66;100.00;100800.00;6024208;23;20345;-64
2022/06/05 10:28:14;;;;;;;7.13;6.72;;;;;;;19.84;100.00;100840.97;5991701;23;20093;-65
2022/06/05 10:30:52;;;;;;;6.05;5.75;;;;;;;19.84;100.00;100830.31;6019712;23;20025;-65
2022/06/05 10:33:49;;;;;;;6.05;5.75;;;;;;;19.82;100.00;100829.63;5985291;23;20030;-67
2022/06/05 10:36:44;;;;;;;5.68;5.35;;;;;;;19.79;100.00;100823.75;5990737;23;20326;-65
2022/06/05 10:39:18;;;;;;;5.70;5.40;;;;;;;19.75;100.00;100809.88;5992053;23;20352;-65
2022/06/05 10:41:53;;;;;;;7.05;6.35;;;;;;;19.81;100.00;100819.13;6019120;23;20026;-69
2022/06/05 10:44:53;;;;;;;6.35;6.00;;;;;;;19.84;100.00;100825.00;5999899;23;20487;-65
2022/06/05 10:47:47;;;;;;;6.53;6.13;;;;;;;19.78;100.00;100827.38;6022652;23;20034;-65
2022/06/05 10:50:22;;;;;;;6.05;5.65;;;;;;;19.40;100.00;100778.34;6021075;23;20026;-65
2022/06/05 10:53:14;;;;;;;6.78;6.38;;;;;;;19.67;100.00;100813.16;6015001;23;20051;-65
2022/06/05 10:55:53;;;;;;;6.32;5.93;;;;;;;19.60;100.00;100812.03;6028037;23;20254;-65
2022/06/05 10:58:51;;;;;;;6.35;6.05;;;;;;;19.59;100.00;100806.84;5991719;23;20600;-65
2022/06/05 11:01:43;;;;;;;5.90;5.60;;;;;;;19.50;100.00;100806.69;6013988;23;20275;-65
2022/06/05 11:04:21;;;;;;;7.78;7.38;;;;;;;19.50;100.00;100790.72;5996512;23;20035;-67
2022/06/05 11:07:18;;;;;;;6.90;6.40;;;;;;;19.59;100.00;100798.88;6026015;23;20427;-69
2022/06/05 11:10:02;;;;;;;6.75;6.35;;;;;;;19.75;100.00;100783.22;5993563;23;20516;-65
2022/06/05 11:15:39;;;;;;;6.72;6.22;;;;;;;19.61;100.00;100754.31;6029375;23;20086;-65
2022/06/05 11:18:38;;;;;;;7.72;7.22;;;;;;;19.88;100.00;100764.31;5994407;23;20106;-65
2022/06/05 11:21:07;;;;;;;7.05;6.75;;;;;;;20.14;100.00;100772.59;6022419;23;20106;-65
2022/06/05 11:23:38;;;;;;;6.40;6.07;;;;;;;20.09;100.00;100724.25;5997225;23;20098;-65
2022/06/05 11:26:32;;;;;;;7.40;7.00;;;;;;;20.38;100.00;100763.34;6012789;23;20027;-65
2022/06/05 11:29:08;;;;;;;8.60;8.18;;;;;;;20.64;100.00;100756.44;5989736;23;20027;-67
2022/06/05 11:31:47;;;;;;;6.30;6.00;;;;;;;21.03;100.00;100737.66;6021084;23;20361;-66
2022/06/05 11:34:27;;;;;;;7.18;6.78;;;;;;;21.41;99.38;100741.09;6002737;23;20357;-70
2022/06/05 11:37:08;;;;;;;7.82;7.32;;;;;;;21.90;94.02;100738.13;6022479;23;20007;-69
2022/06/05 11:39:37;;;;;;;6.22;5.93;;;;;;;21.86;89.76;100734.91;6038970;23;20103;-65
2022/06/05 11:42:23;;;;;;;6.47;6.13;;;;;;;21.94;90.67;100731.47;6023751;23;20019;-65
2022/06/05 11:44:55;;;;;;;8.32;7.85;;;;;;;22.21;89.47;100730.56;6027814;23;20041;-65
2022/06/05 11:48:08;;;;;;;6.95;6.45;;;;;;;22.14;88.01;100700.06;6017971;23;20364;-65
2022/06/05 11:50:44;;;;;;;7.30;6.88;;;;;;;22.78;85.63;100694.50;6019442;23;20499;-65
2022/06/05 11:53:30;;;;;;;6.78;6.38;;;;;;;22.60;85.39;100699.91;6019448;23;20183;-65
2022/06/05 11:56:30;;;;;;;7.13;6.63;;;;;;;21.99;87.11;100699.81;6018621;23;20045;-65
2022/06/05 11:59:31;;;;;;;6.70;6.30;;;;;;;21.44;90.28;100697.28;6026114;23;20015;-65
2022/06/05 12:02:31;;;;;;;6.80;6.40;;;;;;;21.54;88.35;100697.22;5992298;23;20105;-65
2022/06/05 12:05:09;;;;;;;7.35;6.95;;;;;;;20.91;89.30;100669.47;6023703;23;20019;-65
2022/06/05 12:07:36;;;;;;;7.45;7.00;;;;;;;21.18;92.28;100697.94;6018514;23;20414;-65
2022/06/05 12:10:12;;;;;;;6.40;6.00;;;;;;;21.48;90.57;100687.97;5998349;23;20171;-66
2022/06/05 12:12:47;;;;;;;8.05;7.55;;;;;;;21.45;86.89;100625.03;6025335;23;20240;-65